Time;durP1;ratioP1;P1;durP2;ratioP2;P2;SDS_P1;SDS_P2;PMS_P1;PMS_P2;Temp;Humidity;BMP_temperature;BMP_pressure;BME280_temperature;BME280_humidity;BME280_pressure;Samples;Min_cycle;Max_cycle;Signal;HPM_P1;HPM_P2
2021/08/10 00:00:42;;;;;;;6.28;5.20;;;16.30;99.90;;;;;;2056781;28;20027;-72
2021/08/10 00:01:42;;;;;;;7.72;5.20;;;16.30;99.90;;;;;;2056944;28;20101;-73
2021/08/10 00:02:43;;;;;;;7.25;4.95;;;16.40;99.90;;;;;;2057474;28;20478;-72
2021/08/10 00:03:44;;;;;;;6.45;4.88;;;16.40;99.90;;;;;;2056947;28;20035;-72
2021/08/10 00:04:44;;;;;;;5.78;4.90;;;16.50;99.90;;;;;;2056985;28;20027;-73
2021/08/10 00:05:48;;;;;;;7.57;4.70;;;16.50;99.90;;;;;;2065060;28;20104;-73
2021/08/10 00:06:49;;;;;;;6.18;5.00;;;16.50;99.90;;;;;;2057634;28;20039;-73
2021/08/10 00:07:49;;;;;;;6.82;5.00;;;16.60;99.90;;;;;;2056828;28;20023;-72
2021/08/10 00:08:50;;;;;;;7.85;5.15;;;16.60;99.90;;;;;;2056858;28;20050;-73
2021/08/10 00:09:50;;;;;;;5.15;4.60;;;16.70;99.90;;;;;;2057026;28;20031;-74
2021/08/10 00:10:51;;;;;;;7.05;4.60;;;16.70;99.90;;;;;;2057234;28;20023;-73
2021/08/10 00:11:54;;;;;;;6.15;5.10;;;16.70;99.90;;;;;;2057308;28;20034;-72
2021/08/10 00:12:55;;;;;;;6.10;4.88;;;16.70;99.90;;;;;;2057494;28;20494;-72
2021/08/10 00:13:56;;;;;;;5.93;4.60;;;16.80;99.90;;;;;;2057208;28;20031;-72
2021/08/10 00:14:56;;;;;;;7.72;4.80;;;16.80;99.90;;;;;;2057536;28;20054;-72
2021/08/10 00:15:57;;;;;;;6.15;4.85;;;16.80;99.90;;;;;;2056750;28;20487;-73
2021/08/10 00:16:57;;;;;;;6.28;4.70;;;16.80;99.90;;;;;;2056923;28;20039;-72
2021/08/10 00:17:58;;;;;;;7.93;4.85;;;16.80;99.90;;;;;;2057568;28;20371;-72
2021/08/10 00:18:59;;;;;;;5.10;4.40;;;16.90;99.90;;;;;;2056978;28;20043;-74
2021/08/10 00:19:59;;;;;;;6.93;4.63;;;16.90;99.90;;;;;;2057475;28;20391;-73
2021/08/10 00:21:00;;;;;;;6.00;4.55;;;16.90;99.90;;;;;;2057231;28;20138;-73
2021/08/10 00:22:01;;;;;;;5.00;4.38;;;16.90;99.90;;;;;;2057630;28;20058;-73
2021/08/10 00:23:02;;;;;;;6.93;4.57;;;16.90;99.90;;;;;;2057673;28;20566;-73
2021/08/10 00:24:03;;;;;;;5.65;4.40;;;16.90;99.90;;;;;;2057180;28;20046;-72
2021/08/10 00:25:04;;;;;;;6.47;4.43;;;16.90;99.90;;;;;;2057214;28;20066;-72
2021/08/10 00:26:04;;;;;;;5.97;4.35;;;17.00;99.90;;;;;;2057516;28;20023;-72
2021/08/10 00:27:05;;;;;;;5.72;4.30;;;17.00;99.90;;;;;;2057496;28;20077;-73
2021/08/10 00:28:05;;;;;;;5.78;4.30;;;17.00;99.90;;;;;;2057596;28;20084;-72
2021/08/10 00:29:06;;;;;;;4.97;4.43;;;17.10;99.90;;;;;;2056845;28;20070;-73
2021/08/10 00:30:07;;;;;;;5.57;4.25;;;17.10;99.90;;;;;;2057352;28;20550;-72
2021/08/10 00:31:08;;;;;;;5.03;4.10;;;17.10;99.90;;;;;;2056549;28;20027;-73
2021/08/10 00:32:09;;;;;;;6.57;4.38;;;17.10;99.90;;;;;;2056711;28;20392;-73
2021/08/10 00:33:09;;;;;;;5.97;4.22;;;17.20;99.90;;;;;;2056780;28;20031;-73
2021/08/10 00:34:10;;;;;;;5.70;4.30;;;17.20;99.80;;;;;;2056713;28;20034;-72
2021/08/10 00:35:11;;;;;;;6.75;4.18;;;17.20;99.90;;;;;;2064709;28;20073;-72
2021/08/10 00:36:12;;;;;;;5.35;4.38;;;17.20;99.90;;;;;;2056616;28;20039;-72
2021/08/10 00:37:13;;;;;;;4.82;4.03;;;17.20;99.80;;;;;;2056510;28;20037;-73
2021/08/10 00:38:15;;;;;;;5.07;4.10;;;17.20;99.90;;;;;;2056629;28;20031;-72
2021/08/10 00:39:16;;;;;;;5.78;4.13;;;17.20;99.40;;;;;;2055645;28;20039;-72
2021/08/10 00:40:20;;;;;;;4.55;3.90;;;17.20;99.50;;;;;;2056712;28;20054;-72
2021/08/10 00:41:21;;;;;;;6.10;4.07;;;17.20;99.50;;;;;;2056931;28;20637;-72
2021/08/10 00:42:25;;;;;;;7.30;3.95;;;17.20;99.70;;;;;;2056390;28;20058;-74
2021/08/10 00:43:38;;;;;;;6.45;4.28;;;17.30;99.70;;;;;;2056518;28;20023;-72
2021/08/10 00:44:48;;;;;;;4.60;3.90;;;17.30;99.70;;;;;;2056612;28;20122;-72
2021/08/10 00:45:49;;;;;;;4.47;4.07;;;17.30;99.80;;;;;;2056545;28;20027;-73
2021/08/10 00:46:50;;;;;;;4.70;3.90;;;17.20;99.60;;;;;;2056491;28;20118;-72
2021/08/10 00:47:51;;;;;;;4.65;4.10;;;17.30;99.70;;;;;;2056691;28;20790;-72
2021/08/10 00:48:54;;;;;;;4.85;4.28;;;17.30;99.80;;;;;;2040468;28;20032;-72
2021/08/10 00:49:56;;;;;;;5.05;4.20;;;17.30;99.70;;;;;;2041229;29;20114;-73
2021/08/10 00:50:57;;;;;;;4.85;4.15;;;17.30;99.60;;;;;;2048536;28;20154;-72
2021/08/10 00:51:59;;;;;;;5.20;4.18;;;17.30;99.60;;;;;;2056486;28;20031;-71
2021/08/10 00:52:59;;;;;;;4.72;4.32;;;17.30;99.50;;;;;;2048762;28;20146;-72
2021/08/10 00:54:02;;;;;;;6.15;4.25;;;17.30;99.60;;;;;;2048755;29;20035;-72
2021/08/10 00:55:04;;;;;;;5.88;4.10;;;17.30;99.60;;;;;;2056454;28;20146;-72
2021/08/10 00:56:07;;;;;;;5.70;4.15;;;17.30;99.50;;;;;;2056583;28;20454;-72
2021/08/10 00:57:08;;;;;;;4.30;3.90;;;17.30;99.50;;;;;;2056832;28;20186;-72
2021/08/10 00:58:14;;;;;;;5.18;4.07;;;17.30;99.70;;;;;;2048429;28;20534;-72
2021/08/10 00:59:15;;;;;;;5.65;4.50;;;17.30;99.60;;;;;;2048931;28;20027;-72
2021/08/10 01:00:23;;;;;;;5.57;4.20;;;17.30;99.50;;;;;;2056263;28;20030;-72
2021/08/10 01:01:24;;;;;;;5.75;4.20;;;17.30;99.60;;;;;;2056723;28;20031;-72
2021/08/10 01:02:25;;;;;;;4.55;3.90;;;17.30;99.60;;;;;;2056516;28;20074;-72
2021/08/10 01:03:27;;;;;;;5.85;3.95;;;17.30;99.60;;;;;;2048448;28;20508;-72
2021/08/10 01:04:30;;;;;;;4.68;4.07;;;17.30;99.50;;;;;;2048564;28;20046;-72
2021/08/10 01:05:31;;;;;;;4.38;3.97;;;17.30;99.20;;;;;;2048556;28;20923;-70
2021/08/10 01:07:07;;;;;;;5.78;4.05;;;17.30;99.20;;;;;;2049035;28;20103;-71
2021/08/10 01:08:36;;;;;;;4.65;4.03;;;17.40;99.10;;;;;;2030092;28;20040;-72
2021/08/10 01:09:50;;;;;;;6.45;4.20;;;17.40;99.10;;;;;;2051708;28;20034;-71
2021/08/10 01:11:08;;;;;;;5.78;4.00;;;17.40;98.90;;;;;;2049924;28;20406;-71
2021/08/10 01:12:35;;;;;;;4.97;4.20;;;17.30;98.80;;;;;;2050809;28;20020;-72
2021/08/10 01:13:39;;;;;;;4.60;3.95;;;17.30;98.80;;;;;;2042521;28;20043;-72
2021/08/10 01:15:01;;;;;;;6.85;4.30;;;17.30;99.00;;;;;;2056863;28;20070;-72
2021/08/10 01:16:16;;;;;;;5.78;4.45;;;17.30;99.10;;;;;;2056522;28;20506;-71
2021/08/10 01:17:26;;;;;;;5.72;4.05;;;17.30;98.90;;;;;;2042201;29;20034;-71
2021/08/10 01:18:34;;;;;;;5.17;4.33;;;17.30;98.80;;;;;;2043205;28;20052;-71
2021/08/10 01:19:44;;;;;;;5.00;4.47;;;17.30;98.80;;;;;;2056972;28;20653;-71
2021/08/10 01:21:05;;;;;;;7.53;4.80;;;17.30;99.10;;;;;;2056219;28;20027;-71
2021/08/10 01:22:09;;;;;;;5.13;4.27;;;17.30;99.20;;;;;;2051166;28;20036;-72
2021/08/10 01:23:12;;;;;;;5.07;3.92;;;17.20;99.10;;;;;;2056818;28;20266;-71
2021/08/10 01:24:23;;;;;;;5.57;4.30;;;17.20;99.30;;;;;;2056496;28;20557;-71
2021/08/10 01:25:39;;;;;;;6.25;4.45;;;17.30;99.10;;;;;;2058134;28;20031;-71
2021/08/10 01:26:53;;;;;;;6.35;4.15;;;17.30;98.70;;;;;;2062702;28;20029;-71
2021/08/10 01:28:06;;;;;;;4.72;3.92;;;17.20;98.70;;;;;;2056620;28;20580;-71
2021/08/10 01:29:28;;;;;;;5.18;4.20;;;17.20;98.90;;;;;;2057655;28;20030;-72
2021/08/10 01:30:41;;;;;;;5.18;4.28;;;17.20;98.80;;;;;;2056291;28;20046;-72
2021/08/10 01:31:44;;;;;;;7.45;4.10;;;17.20;98.80;;;;;;2058045;28;20038;-72
2021/08/10 01:32:48;;;;;;;4.80;3.85;;;17.20;98.70;;;;;;2056707;28;20102;-72
2021/08/10 01:33:55;;;;;;;4.57;4.00;;;17.20;98.80;;;;;;2057725;28;20027;-73
2021/08/10 01:34:56;;;;;;;6.20;4.10;;;17.20;99.00;;;;;;2056796;28;20027;-72
2021/08/10 01:36:00;;;;;;;5.53;3.80;;;17.20;99.00;;;;;;2048855;28;20083;-72
2021/08/10 01:37:05;;;;;;;6.40;3.88;;;17.20;99.00;;;;;;2048468;28;20070;-72
2021/08/10 01:38:08;;;;;;;5.95;3.95;;;17.10;98.90;;;;;;2049443;28;20035;-72
2021/08/10 01:39:10;;;;;;;5.65;3.92;;;17.20;98.70;;;;;;2048126;28;20036;-73
2021/08/10 01:40:25;;;;;;;4.72;4.10;;;17.20;98.70;;;;;;2057651;28;20033;-72
2021/08/10 01:41:30;;;;;;;6.03;3.92;;;17.20;98.60;;;;;;2056327;28;20034;-73
2021/08/10 01:42:32;;;;;;;6.30;4.40;;;17.20;98.40;;;;;;2056569;28;20031;-72
2021/08/10 01:43:35;;;;;;;4.25;3.72;;;17.20;98.40;;;;;;2056161;28;20023;-73
2021/08/10 01:44:36;;;;;;;7.20;4.28;;;17.20;98.60;;;;;;2048730;28;20039;-73
2021/08/10 01:45:43;;;;;;;5.40;4.28;;;17.20;98.40;;;;;;2059255;28;20026;-73
2021/08/10 01:46:48;;;;;;;6.32;4.05;;;17.20;98.40;;;;;;2057821;28;20113;-73
2021/08/10 01:47:50;;;;;;;5.30;4.40;;;17.10;98.50;;;;;;2058228;28;20050;-73
2021/08/10 01:48:56;;;;;;;5.25;4.07;;;17.10;98.30;;;;;;2050193;28;20027;-72
2021/08/10 01:49:59;;;;;;;4.10;3.70;;;17.10;98.50;;;;;;2058359;28;20034;-72
2021/08/10 01:51:00;;;;;;;6.07;4.05;;;17.10;98.60;;;;;;2063902;28;20885;-73
2021/08/10 01:52:02;;;;;;;6.45;4.20;;;17.10;98.50;;;;;;2056677;28;20603;-72
2021/08/10 01:53:03;;;;;;;4.90;4.03;;;17.10;98.60;;;;;;2056624;28;20041;-73
2021/08/10 01:54:09;;;;;;;5.28;4.13;;;17.10;98.50;;;;;;2056195;28;20031;-73
2021/08/10 01:55:11;;;;;;;4.70;4.20;;;17.10;98.70;;;;;;2056242;28;20122;-73
2021/08/10 01:56:13;;;;;;;5.43;4.03;;;17.10;98.70;;;;;;2048237;29;20142;-73
2021/08/10 01:57:19;;;;;;;5.60;4.10;;;17.10;98.70;;;;;;2048936;28;20047;-72
2021/08/10 01:58:22;;;;;;;6.13;3.97;;;17.10;98.70;;;;;;2056442;28;20099;-72
2021/08/10 01:59:26;;;;;;;5.35;4.00;;;17.10;98.80;;;;;;2055619;28;20573;-73
2021/08/10 02:00:27;;;;;;;5.72;4.00;;;17.10;99.00;;;;;;2048037;28;20031;-72
2021/08/10 02:01:33;;;;;;;6.35;4.35;;;17.10;98.90;;;;;;2048788;28;20110;-73
2021/08/10 02:02:33;;;;;;;5.30;4.45;;;17.00;98.80;;;;;;2056422;28;20398;-73
2021/08/10 02:03:46;;;;;;;6.30;4.28;;;17.00;98.90;;;;;;2056194;28;20031;-74
2021/08/10 02:04:49;;;;;;;5.28;4.25;;;17.00;98.90;;;;;;2048278;28;20028;-72
2021/08/10 02:05:51;;;;;;;4.93;4.03;;;17.00;98.90;;;;;;2057556;28;20034;-72
2021/08/10 02:07:01;;;;;;;4.38;3.97;;;17.10;98.90;;;;;;2058764;28;20410;-72
2021/08/10 02:08:04;;;;;;;5.35;4.40;;;17.10;98.80;;;;;;2058302;28;20042;-72
2021/08/10 02:09:07;;;;;;;5.57;4.38;;;17.10;99.20;;;;;;2056785;28;20034;-71
2021/08/10 02:10:09;;;;;;;4.45;4.05;;;17.10;98.80;;;;;;2048750;28;20027;-71
2021/08/10 02:11:14;;;;;;;4.97;4.10;;;17.00;98.80;;;;;;2049041;28;20023;-71
2021/08/10 02:12:16;;;;;;;5.10;4.10;;;17.00;98.90;;;;;;2049102;28;20031;-71
2021/08/10 02:13:17;;;;;;;4.32;3.92;;;17.00;98.90;;;;;;2057658;28;20029;-71
2021/08/10 02:14:24;;;;;;;4.68;4.10;;;17.00;98.90;;;;;;2057626;28;20034;-72
2021/08/10 02:15:29;;;;;;;5.13;4.03;;;17.00;98.90;;;;;;2049658;28;20039;-72
2021/08/10 02:16:36;;;;;;;5.05;4.05;;;17.10;99.10;;;;;;2050267;28;20070;-71
2021/08/10 02:17:37;;;;;;;5.00;4.20;;;17.00;99.10;;;;;;2049867;28;20062;-71
2021/08/10 02:18:48;;;;;;;5.85;3.97;;;17.00;99.20;;;;;;2059066;28;20089;-71
2021/08/10 02:19:56;;;;;;;4.35;3.95;;;17.00;99.20;;;;;;2057201;28;20034;-71
2021/08/10 02:20:58;;;;;;;4.50;4.10;;;17.00;99.30;;;;;;2056447;28;20494;-71
2021/08/10 02:22:13;;;;;;;4.35;3.78;;;17.00;99.20;;;;;;2056367;28;20057;-71
2021/08/10 02:23:20;;;;;;;4.40;3.83;;;17.00;99.20;;;;;;2056038;28;20058;-71
2021/08/10 02:24:30;;;;;;;4.97;3.90;;;17.00;99.20;;;;;;2048314;28;20118;-72
2021/08/10 02:25:37;;;;;;;4.25;3.65;;;17.00;98.80;;;;;;2043420;28;20038;-71
2021/08/10 02:26:46;;;;;;;4.97;3.70;;;17.00;98.90;;;;;;2056696;28;20505;-72
2021/08/10 02:27:56;;;;;;;4.30;3.90;;;16.90;98.80;;;;;;2056218;28;20046;-71
2021/08/10 02:29:00;;;;;;;5.22;3.55;;;16.90;98.90;;;;;;2056389;28;20509;-72
2021/08/10 02:30:07;;;;;;;4.28;3.75;;;16.90;99.00;;;;;;2055853;28;20041;-72
2021/08/10 02:31:09;;;;;;;4.57;3.65;;;16.90;99.20;;;;;;2047668;28;20400;-72
2021/08/10 02:32:19;;;;;;;4.25;3.85;;;16.80;99.30;;;;;;2041049;28;20038;-71
2021/08/10 02:33:22;;;;;;;4.10;3.70;;;16.80;99.40;;;;;;2056528;28;20035;-73
2021/08/10 02:34:24;;;;;;;4.18;3.55;;;16.80;99.50;;;;;;2055715;28;20393;-72
2021/08/10 02:35:28;;;;;;;6.05;3.75;;;16.80;99.60;;;;;;2047950;28;20059;-72
2021/08/10 02:36:31;;;;;;;4.00;3.60;;;16.70;99.70;;;;;;2056072;28;20115;-73
2021/08/10 02:37:36;;;;;;;4.10;3.60;;;16.70;99.70;;;;;;2055644;28;20066;-71
2021/08/10 02:38:42;;;;;;;4.85;3.70;;;16.70;99.90;;;;;;2056468;28;20037;-73
2021/08/10 02:39:45;;;;;;;4.10;3.70;;;16.70;99.90;;;;;;2055176;28;20026;-73
2021/08/10 02:40:48;;;;;;;3.70;3.40;;;16.60;99.90;;;;;;2055614;28;20041;-73
2021/08/10 02:41:53;;;;;;;4.55;3.60;;;16.60;99.90;;;;;;2055283;28;20070;-73
2021/08/10 02:42:58;;;;;;;6.20;3.70;;;16.50;99.90;;;;;;2047976;28;20059;-73
2021/08/10 02:43:59;;;;;;;4.18;3.72;;;16.50;99.90;;;;;;2055971;28;20035;-72
2021/08/10 02:45:01;;;;;;;4.82;3.70;;;16.50;99.90;;;;;;2055978;28;20051;-72
2021/08/10 02:46:02;;;;;;;4.47;3.65;;;16.50;99.90;;;;;;2048160;28;20038;-72
2021/08/10 02:47:03;;;;;;;4.03;3.63;;;16.50;99.90;;;;;;2056213;28;20051;-72
2021/08/10 02:48:05;;;;;;;4.93;3.45;;;16.50;99.90;;;;;;2056096;28;20029;-72
2021/08/10 02:49:10;;;;;;;4.03;3.63;;;16.40;99.90;;;;;;2056123;28;20069;-72
2021/08/10 02:50:11;;;;;;;4.35;3.72;;;16.40;99.90;;;;;;2063914;28;20303;-72
2021/08/10 02:51:12;;;;;;;6.13;4.10;;;16.40;99.90;;;;;;2055934;28;20501;-72
2021/08/10 02:52:13;;;;;;;4.70;3.80;;;16.40;99.90;;;;;;2056021;28;20142;-72
2021/08/10 02:53:15;;;;;;;4.97;3.92;;;16.40;99.90;;;;;;2055957;28;20066;-72
2021/08/10 02:54:16;;;;;;;4.45;3.85;;;16.30;99.90;;;;;;2056170;28;20062;-72
2021/08/10 02:55:21;;;;;;;4.15;3.72;;;16.40;99.90;;;;;;2056243;28;20023;-72
2021/08/10 02:56:27;;;;;;;5.22;3.80;;;16.40;99.90;;;;;;2056766;28;20037;-72
2021/08/10 02:57:36;;;;;;;4.47;3.83;;;16.40;99.90;;;;;;2056248;28;20038;-72
2021/08/10 02:59:02;;;;;;;4.32;3.72;;;16.40;99.90;;;;;;2049302;28;20039;-73
2021/08/10 03:00:08;;;;;;;5.55;4.05;;;16.40;99.90;;;;;;2019331;29;20029;-72
2021/08/10 03:01:13;;;;;;;5.07;3.80;;;16.40;99.90;;;;;;2038163;29;20103;-72
2021/08/10 03:02:21;;;;;;;4.72;4.00;;;16.40;99.90;;;;;;2040505;29;20023;-72
2021/08/10 03:03:26;;;;;;;6.32;3.95;;;16.40;99.90;;;;;;2048647;28;20075;-72
2021/08/10 03:04:30;;;;;;;6.20;3.80;;;16.40;99.90;;;;;;2056582;28;20031;-72
2021/08/10 03:05:34;;;;;;;6.43;4.25;;;16.40;99.90;;;;;;2056084;28;20030;-72
2021/08/10 03:06:35;;;;;;;4.40;4.00;;;16.40;99.90;;;;;;2056701;28;20031;-72
2021/08/10 03:07:44;;;;;;;5.20;4.13;;;16.40;99.90;;;;;;2056050;28;20129;-72
2021/08/10 03:08:48;;;;;;;5.18;3.90;;;16.50;99.90;;;;;;2055736;28;20026;-73
2021/08/10 03:09:55;;;;;;;5.70;4.20;;;16.40;99.90;;;;;;2056130;28;20426;-73
2021/08/10 03:10:57;;;;;;;5.22;4.03;;;16.40;99.90;;;;;;2055530;28;20052;-72
2021/08/10 03:12:04;;;;;;;4.75;4.00;;;16.40;99.90;;;;;;2048002;28;20181;-72
2021/08/10 03:13:08;;;;;;;5.28;4.25;;;16.40;99.90;;;;;;2055979;28;20486;-73
2021/08/10 03:14:11;;;;;;;5.03;4.05;;;16.40;99.90;;;;;;2055835;28;20035;-73
2021/08/10 03:15:13;;;;;;;6.32;4.05;;;16.40;99.90;;;;;;2056024;28;20031;-73
2021/08/10 03:16:15;;;;;;;5.63;3.80;;;16.40;99.90;;;;;;2055755;28;20074;-73
2021/08/10 03:17:17;;;;;;;4.20;3.80;;;16.30;99.90;;;;;;2056163;28;20825;-73
2021/08/10 03:18:26;;;;;;;6.03;4.13;;;16.30;99.90;;;;;;2055794;28;20544;-73
2021/08/10 03:19:27;;;;;;;5.70;4.20;;;16.30;99.90;;;;;;2055476;28;20038;-73
2021/08/10 03:20:30;;;;;;;4.78;4.05;;;16.30;99.90;;;;;;2056099;28;20031;-72
2021/08/10 03:21:33;;;;;;;5.80;4.50;;;16.30;99.90;;;;;;2056306;28;20115;-73
2021/08/10 03:22:37;;;;;;;5.25;4.20;;;16.30;99.90;;;;;;2055650;28;20042;-72
2021/08/10 03:23:41;;;;;;;8.50;4.30;;;16.30;99.90;;;;;;2056283;28;20450;-73
2021/08/10 03:24:44;;;;;;;4.40;4.00;;;16.30;99.90;;;;;;2055694;28;20087;-72
2021/08/10 03:25:49;;;;;;;7.30;4.30;;;16.30;99.90;;;;;;2056040;28;20034;-73
2021/08/10 03:26:51;;;;;;;4.95;4.40;;;16.30;99.90;;;;;;2063548;28;20478;-73
2021/08/10 03:27:54;;;;;;;4.35;3.92;;;16.30;99.90;;;;;;2056287;28;20030;-72
2021/08/10 03:28:55;;;;;;;4.38;3.90;;;16.20;99.90;;;;;;2055044;28;20027;-73
2021/08/10 03:29:56;;;;;;;4.40;3.97;;;16.20;99.90;;;;;;2055337;28;20027;-73
2021/08/10 03:30:58;;;;;;;4.75;4.25;;;16.20;99.90;;;;;;2055205;28;20524;-73
2021/08/10 03:31:59;;;;;;;5.15;4.20;;;16.20;99.90;;;;;;2055473;28;20034;-72
2021/08/10 03:33:01;;;;;;;5.75;4.40;;;16.20;99.90;;;;;;2055502;28;20027;-72
2021/08/10 03:34:03;;;;;;;5.72;4.18;;;16.20;99.90;;;;;;2055811;28;20030;-72
2021/08/10 03:35:04;;;;;;;4.57;4.05;;;16.20;99.90;;;;;;2055379;28;20031;-72
2021/08/10 03:36:05;;;;;;;4.90;4.40;;;16.20;99.90;;;;;;2055512;28;20035;-72
2021/08/10 03:37:07;;;;;;;4.68;4.10;;;16.20;99.90;;;;;;2055477;28;20034;-73
2021/08/10 03:38:10;;;;;;;4.40;4.00;;;16.10;99.90;;;;;;2047791;28;20119;-72
2021/08/10 03:39:12;;;;;;;5.05;4.15;;;16.20;99.90;;;;;;2047092;28;20715;-72
2021/08/10 03:40:14;;;;;;;5.82;4.38;;;16.10;99.90;;;;;;2047403;28;20506;-73
2021/08/10 03:41:15;;;;;;;4.60;4.20;;;16.20;99.90;;;;;;2055387;28;20121;-72
2021/08/10 03:42:18;;;;;;;5.60;4.30;;;16.10;99.90;;;;;;2055661;28;20047;-72
2021/08/10 03:43:21;;;;;;;4.88;4.18;;;16.10;99.90;;;;;;2039756;28;20032;-71
2021/08/10 03:44:23;;;;;;;6.03;4.13;;;16.10;99.90;;;;;;2040450;28;20031;-72
2021/08/10 03:45:26;;;;;;;5.00;4.07;;;16.10;99.90;;;;;;2048201;28;20023;-71
2021/08/10 03:46:30;;;;;;;7.32;4.45;;;16.10;99.90;;;;;;2056336;28;20041;-72
2021/08/10 03:47:32;;;;;;;4.70;4.20;;;16.10;99.90;;;;;;2055877;28;20035;-73
2021/08/10 03:48:38;;;;;;;4.88;3.88;;;16.10;99.90;;;;;;2055923;28;20029;-73
2021/08/10 03:49:39;;;;;;;6.32;4.50;;;16.10;99.90;;;;;;2062729;28;20030;-72
2021/08/10 03:50:42;;;;;;;4.97;4.47;;;16.10;99.90;;;;;;2055250;28;20023;-73
2021/08/10 03:51:44;;;;;;;5.70;4.28;;;16.10;99.90;;;;;;2055942;28;20026;-74
2021/08/10 03:52:50;;;;;;;5.47;4.40;;;16.10;99.90;;;;;;2055729;28;20030;-73
2021/08/10 03:53:51;;;;;;;5.90;4.60;;;16.10;99.90;;;;;;2048086;28;20027;-73
2021/08/10 03:54:55;;;;;;;5.68;4.40;;;16.10;99.90;;;;;;2048091;28;20059;-73
2021/08/10 03:55:59;;;;;;;5.85;4.43;;;16.10;99.90;;;;;;2047980;28;20780;-72
2021/08/10 03:57:10;;;;;;;5.70;4.40;;;16.10;99.90;;;;;;2056797;28;20023;-72
2021/08/10 03:58:11;;;;;;;5.15;4.20;;;16.10;99.90;;;;;;2055619;28;20047;-73
2021/08/10 03:59:17;;;;;;;4.88;4.40;;;16.10;99.90;;;;;;2047341;28;20111;-73
2021/08/10 04:00:21;;;;;;;5.25;4.30;;;16.10;99.90;;;;;;2048709;28;20081;-73
2021/08/10 04:01:31;;;;;;;5.53;4.10;;;16.10;99.90;;;;;;2048632;28;20094;-73
2021/08/10 04:02:34;;;;;;;5.35;4.20;;;16.10;99.90;;;;;;2048189;28;20054;-72
2021/08/10 04:03:36;;;;;;;6.75;4.50;;;16.10;99.90;;;;;;2048412;28;20023;-74
2021/08/10 04:04:39;;;;;;;4.95;4.40;;;16.10;99.90;;;;;;2056267;28;20085;-74
2021/08/10 04:05:43;;;;;;;7.38;4.40;;;16.10;99.90;;;;;;2055766;28;20110;-74
2021/08/10 04:06:45;;;;;;;5.82;4.40;;;16.10;99.90;;;;;;2056090;28;20027;-73
2021/08/10 04:07:46;;;;;;;4.88;4.32;;;16.10;99.90;;;;;;2063753;28;20030;-74
2021/08/10 04:08:47;;;;;;;4.78;4.28;;;16.10;99.90;;;;;;2055805;28;20026;-73
2021/08/10 04:09:49;;;;;;;5.25;4.63;;;16.10;99.90;;;;;;2055339;28;20164;-74
2021/08/10 04:10:54;;;;;;;5.85;4.35;;;16.10;99.90;;;;;;2056639;28;20041;-76
2021/08/10 04:11:59;;;;;;;5.03;4.00;;;16.10;99.90;;;;;;2041637;29;20118;-75
2021/08/10 04:13:00;;;;;;;5.13;4.28;;;16.10;99.90;;;;;;2050119;28;20427;-74
2021/08/10 04:14:03;;;;;;;5.28;4.40;;;16.10;99.90;;;;;;2055681;28;20479;-75
2021/08/10 04:15:06;;;;;;;5.82;4.53;;;16.10;99.90;;;;;;2057489;28;20030;-74
2021/08/10 04:16:14;;;;;;;5.95;4.32;;;16.10;99.90;;;;;;2056976;28;20406;-73
2021/08/10 04:17:17;;;;;;;4.97;4.50;;;16.20;99.90;;;;;;2049846;28;20034;-73
2021/08/10 04:18:21;;;;;;;6.97;4.50;;;16.20;99.90;;;;;;2048947;29;20086;-73
2021/08/10 04:19:27;;;;;;;6.15;4.60;;;16.20;99.90;;;;;;2048846;28;20054;-71
2021/08/10 04:20:28;;;;;;;5.85;4.63;;;16.20;99.90;;;;;;2057107;28;20038;-72
2021/08/10 04:21:28;;;;;;;5.25;4.60;;;16.30;99.90;;;;;;2056934;28;20889;-74
2021/08/10 04:22:32;;;;;;;6.65;4.50;;;16.30;99.90;;;;;;2049226;28;20087;-73
2021/08/10 04:23:35;;;;;;;4.95;4.45;;;16.30;99.90;;;;;;2049625;28;20090;-73
2021/08/10 04:24:36;;;;;;;5.20;4.30;;;16.30;99.90;;;;;;2049200;28;20034;-73
2021/08/10 04:25:38;;;;;;;4.95;4.47;;;16.40;99.90;;;;;;2049159;28;20082;-73
2021/08/10 04:26:41;;;;;;;5.45;4.32;;;16.40;99.90;;;;;;2049331;28;20027;-73
2021/08/10 04:27:43;;;;;;;6.10;4.30;;;16.50;99.90;;;;;;2049175;28;20069;-74
2021/08/10 04:28:48;;;;;;;6.65;4.20;;;16.50;99.90;;;;;;2049490;28;20611;-75
2021/08/10 04:29:53;;;;;;;6.13;4.15;;;16.60;99.90;;;;;;2057299;28;20111;-74
2021/08/10 04:30:57;;;;;;;4.55;4.03;;;16.60;99.90;;;;;;2056354;28;20057;-72
2021/08/10 04:31:59;;;;;;;5.45;4.25;;;16.70;99.90;;;;;;2056749;28;20026;-73
2021/08/10 04:33:02;;;;;;;6.68;4.43;;;16.70;99.90;;;;;;2057031;28;20015;-73
2021/08/10 04:34:05;;;;;;;4.55;3.60;;;16.80;99.90;;;;;;2057000;28;20475;-73
2021/08/10 04:35:08;;;;;;;5.82;4.10;;;16.80;99.90;;;;;;2048843;28;20033;-73
2021/08/10 04:36:11;;;;;;;5.30;4.45;;;16.90;99.90;;;;;;2049069;28;20070;-73
2021/08/10 04:37:18;;;;;;;5.13;4.35;;;16.90;99.90;;;;;;2048994;28;20114;-73
2021/08/10 04:38:19;;;;;;;4.55;4.10;;;16.90;99.90;;;;;;2057185;28;20031;-73
2021/08/10 04:39:20;;;;;;;6.43;4.40;;;17.00;99.90;;;;;;2056470;28;20058;-73
2021/08/10 04:40:27;;;;;;;5.00;4.50;;;17.00;99.90;;;;;;2049033;28;20030;-74
2021/08/10 04:41:48;;;;;;;5.05;4.50;;;17.00;99.90;;;;;;2057018;28;20035;-74
2021/08/10 04:42:49;;;;;;;4.97;4.18;;;17.10;99.90;;;;;;2056874;28;20125;-73
2021/08/10 04:43:51;;;;;;;4.30;3.90;;;17.10;99.90;;;;;;2056670;28;20034;-74
2021/08/10 04:44:52;;;;;;;6.32;4.40;;;17.20;99.90;;;;;;2056739;28;20030;-73
2021/08/10 04:45:53;;;;;;;5.40;4.10;;;17.20;99.90;;;;;;2048853;29;20027;-73
2021/08/10 04:46:54;;;;;;;4.70;4.00;;;17.30;99.90;;;;;;2056890;28;20027;-74
2021/08/10 04:47:55;;;;;;;5.45;4.18;;;17.30;99.90;;;;;;2056789;28;20058;-73
2021/08/10 04:48:56;;;;;;;5.40;4.10;;;17.30;99.70;;;;;;2064640;28;20031;-74
2021/08/10 04:49:58;;;;;;;4.90;4.25;;;17.30;99.70;;;;;;2056664;28;20375;-74
2021/08/10 04:50:58;;;;;;;6.15;4.50;;;17.40;99.60;;;;;;2056741;28;20034;-73
2021/08/10 04:51:59;;;;;;;5.53;4.32;;;17.40;99.40;;;;;;2064810;28;20033;-74
2021/08/10 04:53:00;;;;;;;4.50;4.10;;;17.40;99.20;;;;;;2056902;28;20019;-73
2021/08/10 04:54:01;;;;;;;4.68;4.07;;;17.40;99.10;;;;;;2056863;28;20567;-73
2021/08/10 04:55:02;;;;;;;5.28;3.80;;;17.40;99.10;;;;;;2064790;28;20194;-74
2021/08/10 04:56:03;;;;;;;4.68;4.20;;;17.50;99.10;;;;;;2056789;28;20081;-74
2021/08/10 04:57:04;;;;;;;4.95;3.88;;;17.40;99.00;;;;;;2056597;28;20023;-73
2021/08/10 04:58:07;;;;;;;6.13;4.30;;;17.40;98.90;;;;;;2056461;28;20027;-73
2021/08/10 04:59:10;;;;;;;6.32;4.70;;;17.50;98.80;;;;;;2041175;28;20034;-73
2021/08/10 05:00:13;;;;;;;6.80;4.78;;;17.50;98.60;;;;;;2049157;28;20114;-73
2021/08/10 05:01:16;;;;;;;5.18;4.65;;;17.50;98.70;;;;;;2048691;28;20059;-73
2021/08/10 05:02:20;;;;;;;5.32;4.70;;;17.50;98.70;;;;;;2049201;28;20039;-73
2021/08/10 05:03:22;;;;;;;5.75;4.40;;;17.50;98.60;;;;;;2048868;28;20052;-72
2021/08/10 05:04:25;;;;;;;6.53;4.72;;;17.60;98.50;;;;;;2048845;28;20031;-73
2021/08/10 05:05:27;;;;;;;7.53;4.60;;;17.60;98.30;;;;;;2048688;28;20464;-73
2021/08/10 05:06:36;;;;;;;7.28;4.63;;;17.60;98.20;;;;;;2056726;28;20074;-72
2021/08/10 05:07:37;;;;;;;5.15;4.20;;;17.70;98.30;;;;;;2057157;28;20467;-72
2021/08/10 05:08:41;;;;;;;4.50;4.10;;;17.60;98.30;;;;;;2058746;28;20037;-73
2021/08/10 05:09:42;;;;;;;5.90;4.22;;;17.70;98.20;;;;;;2057283;28;20062;-73
2021/08/10 05:10:44;;;;;;;4.90;4.10;;;17.70;97.70;;;;;;2056406;28;20019;-74
2021/08/10 05:11:48;;;;;;;5.45;4.15;;;17.70;97.50;;;;;;2064493;28;20039;-73
2021/08/10 05:12:51;;;;;;;5.25;4.10;;;17.70;97.40;;;;;;2056442;28;20046;-74
2021/08/10 05:13:58;;;;;;;4.30;3.90;;;17.70;97.40;;;;;;2049210;28;20019;-74
2021/08/10 05:15:00;;;;;;;6.85;4.10;;;17.70;97.30;;;;;;2056796;28;20541;-73
2021/08/10 05:16:03;;;;;;;5.28;4.10;;;17.70;97.30;;;;;;2056374;28;20038;-72
2021/08/10 05:17:07;;;;;;;5.65;4.10;;;17.70;97.30;;;;;;2056798;28;20034;-73
2021/08/10 05:18:11;;;;;;;5.03;4.25;;;17.70;97.30;;;;;;2056504;28;20038;-72
2021/08/10 05:19:15;;;;;;;5.38;4.10;;;17.70;97.20;;;;;;2048363;28;20073;-71
2021/08/10 05:20:18;;;;;;;5.70;4.47;;;17.70;97.00;;;;;;2040824;29;20035;-73
2021/08/10 05:21:21;;;;;;;4.60;4.20;;;17.80;96.80;;;;;;2040920;28;20015;-73
2021/08/10 05:22:28;;;;;;;4.70;4.30;;;17.70;96.80;;;;;;2057150;28;20031;-72
2021/08/10 05:23:36;;;;;;;5.55;3.97;;;17.80;96.80;;;;;;2056546;28;20491;-73
2021/08/10 05:24:39;;;;;;;6.13;4.55;;;17.80;96.70;;;;;;2057321;28;20054;-72
2021/08/10 05:25:42;;;;;;;6.30;4.35;;;17.80;96.60;;;;;;2056333;28;20019;-73
2021/08/10 05:26:45;;;;;;;5.28;4.03;;;17.80;96.60;;;;;;2056416;28;20420;-73
2021/08/10 05:27:46;;;;;;;5.13;3.80;;;17.80;96.50;;;;;;2056318;28;20066;-74
2021/08/10 05:28:47;;;;;;;4.55;3.88;;;17.80;96.50;;;;;;2048484;28;20487;-73
2021/08/10 05:29:51;;;;;;;5.05;3.85;;;17.80;96.40;;;;;;2055766;28;20030;-73
2021/08/10 05:30:52;;;;;;;5.18;3.90;;;17.80;96.40;;;;;;2055756;28;20026;-74
2021/08/10 05:31:53;;;;;;;6.72;3.97;;;17.80;96.40;;;;;;2056221;28;20516;-74
2021/08/10 05:32:53;;;;;;;7.72;4.53;;;17.90;96.20;;;;;;2056350;28;20054;-74
2021/08/10 05:33:54;;;;;;;4.90;4.00;;;17.90;96.30;;;;;;2056428;28;20163;-74